»·PEaware :: MRR29 S10-76WA

MRR29 :: S10-76WA

FLIGHT INFORMATION

Flight Status: Arrived
Operator:
San Juan Airlines
More flights by this operator :: More flights under this callsign
Pilot: Alex L. (5269)
Aircraft: Unknown
(G73)
More flights by this aircraft type
Origin: S10 Chelan Mun
United States
Destination: 76WA Heineck Farm
United States
More flights between these airports :: More routes between these airports
Route: +DCT
File this flight plan on PilotEdge
Remarks: San Juan Virtual Airlines and FSEconomy flight
Altitude:
(Current/Filed)
4,500ft
Speed:
(Current/Filed)
157kts
Departed: 29-Jan-17 04:48 PM
Arrived: 29-Jan-17 05:51 PM
Distance/Time
Traveled:
88nm/1:02
Distance/Time
To Go:
Arrived

Flight Plot

Page will automatically refresh every two minutes.


Map Options




Map Legend


Flown Route
Filed Route
Departure Airport
Arrival Airport
Navaid (VOR, NDB)
Fix

Horizontal Profiles

Position Reports

Time Latitude Longitude Heading Altitude Ground
Speed
29-Jan-17 16:32 47.865051 -119.945090 266 1271ft 0kts
29-Jan-17 16:33 47.865051 -119.945090 266 1271ft 0kts
29-Jan-17 16:34 47.865051 -119.945090 266 1271ft 0kts
29-Jan-17 16:35 47.865051 -119.945090 266 1271ft 0kts
29-Jan-17 16:36 47.865051 -119.945091 266 1271ft 0kts
29-Jan-17 16:37 47.865051 -119.945093 266 1271ft 0kts
29-Jan-17 16:38 47.865051 -119.945095 266 1271ft 0kts
29-Jan-17 16:39 47.865051 -119.945097 266 1271ft 0kts
29-Jan-17 16:40 47.865051 -119.945098 266 1271ft 0kts
29-Jan-17 16:41 47.865051 -119.945100 266 1271ft 0kts
29-Jan-17 16:42 47.864923 -119.945207 152 1271ft 0kts
29-Jan-17 16:43 47.864917 -119.945203 152 1271ft 0kts
29-Jan-17 16:44 47.864913 -119.945200 152 1271ft 0kts
29-Jan-17 16:45 47.864121 -119.945049 222 1271ft 9kts
29-Jan-17 16:46 47.862385 -119.947179 48 1271ft 1kts
29-Jan-17 16:47 47.862464 -119.947068 43 1271ft 1kts
29-Jan-17 16:48 47.880243 -119.926401 35 1973ft 115kts
29-Jan-17 16:49 47.910595 -119.903598 59 3139ft 121kts
29-Jan-17 16:50 47.887451 -119.905749 225 3812ft 152kts
29-Jan-17 16:51 47.850855 -119.954051 215 3070ft 174kts
29-Jan-17 16:52 47.811034 -119.988882 207 2969ft 163kts
29-Jan-17 16:53 47.780865 -120.030799 255 3218ft 147kts
29-Jan-17 16:54 47.778705 -120.093651 268 3210ft 153kts
29-Jan-17 16:55 47.772388 -120.155888 248 3210ft 156kts
29-Jan-17 16:56 47.750725 -120.210999 223 3210ft 158kts
29-Jan-17 16:57 47.709799 -120.220710 166 3212ft 158kts
29-Jan-17 16:58 47.666325 -120.224379 194 3235ft 156kts
29-Jan-17 16:59 47.623801 -120.241960 192 3231ft 159kts
29-Jan-17 17:00 47.582089 -120.262420 203 3247ft 158kts
29-Jan-17 17:01 47.541250 -120.288576 203 3137ft 161kts
29-Jan-17 17:02 47.499390 -120.309781 193 3131ft 159kts
29-Jan-17 17:03 47.482798 -120.356736 285 3053ft 156kts
29-Jan-17 17:04 47.502519 -120.413396 306 3011ft 156kts
29-Jan-17 17:05 47.522168 -120.469840 290 2988ft 155kts
29-Jan-17 17:06 47.538253 -120.528894 298 2997ft 152kts
29-Jan-17 17:07 47.564161 -120.579406 313 2955ft 154kts
29-Jan-17 17:08 47.595354 -120.623455 314 2914ft 154kts
29-Jan-17 17:09 47.585285 -120.667016 190 2992ft 159kts
29-Jan-17 17:10 47.550728 -120.696701 256 3061ft 154kts
29-Jan-17 17:11 47.550502 -120.758037 300 3068ft 161kts
29-Jan-17 17:12 47.583472 -120.798090 322 3360ft 150kts
29-Jan-17 17:13 47.609771 -120.846048 280 3388ft 156kts
29-Jan-17 17:14 47.609912 -120.908076 267 3674ft 150kts
29-Jan-17 17:15 47.627438 -120.961749 311 4415ft 128kts
29-Jan-17 17:16 47.653673 -120.996348 320 5724ft 138kts
29-Jan-17 17:17 47.680442 -121.035460 298 6887ft 142kts
29-Jan-17 17:18 47.709727 -121.049072 32 8641ft 126kts
29-Jan-17 17:19 47.747571 -121.032906 334 9300ft 161kts
29-Jan-17 17:20 47.789477 -121.055437 335 9827ft 164kts
29-Jan-17 17:21 47.832368 -121.078278 331 10055ft 163kts
29-Jan-17 17:22 47.846815 -121.133801 271 10136ft 154kts
29-Jan-17 17:23 47.850436 -121.199014 276 9979ft 160kts
29-Jan-17 17:24 47.847643 -121.263447 256 10021ft 152kts
29-Jan-17 17:25 47.844734 -121.326997 269 10006ft 155kts
29-Jan-17 17:26 47.844038 -121.391308 266 10044ft 154kts
29-Jan-17 17:27 47.846153 -121.453909 273 10098ft 150kts
29-Jan-17 17:28 47.854434 -121.514770 281 10117ft 150kts
29-Jan-17 17:29 47.866008 -121.574992 285 10122ft 151kts
29-Jan-17 17:30 47.879809 -121.634072 287 9941ft 146kts
29-Jan-17 17:31 47.895323 -121.691317 291 8965ft 152kts
29-Jan-17 17:32 47.917020 -121.744717 310 8123ft 155kts
29-Jan-17 17:33 47.955909 -121.773217 353 7403ft 160kts
29-Jan-17 17:34 47.993504 -121.794952 283 6426ft 141kts
29-Jan-17 17:35 47.990908 -121.853499 263 5457ft 145kts
29-Jan-17 17:36 47.985522 -121.914894 260 4218ft 149kts
29-Jan-17 17:37 47.986307 -121.976199 280 3028ft 151kts
29-Jan-17 17:38 47.996465 -122.036195 283 2322ft 141kts
29-Jan-17 17:39 48.002842 -122.094130 279 1522ft 132kts
29-Jan-17 17:40 48.008970 -122.144374 283 1241ft 115kts
29-Jan-17 17:41 48.025950 -122.150980 83 1329ft 101kts
29-Jan-17 17:42 48.004783 -122.149105 222 1294ft 113kts
29-Jan-17 17:43 47.998652 -122.189512 272 1452ft 105kts
29-Jan-17 17:44 48.007146 -122.222301 36 1651ft 94kts
29-Jan-17 17:45 48.000876 -122.181025 108 1659ft 110kts
29-Jan-17 17:46 47.997882 -122.136362 82 1757ft 106kts
29-Jan-17 17:47 48.006733 -122.151258 274 1714ft 99kts
29-Jan-17 17:48 48.010435 -122.191345 286 1286ft 95kts
29-Jan-17 17:49 48.002697 -122.186667 72 886ft 93kts
29-Jan-17 17:50 48.005247 -122.154003 86 283ft 76kts
29-Jan-17 17:51 48.005531 -122.130556 37 20ft 7kts
29-Jan-17 17:52 48.006252 -122.130653 169 20ft 0kts
29-Jan-17 17:53 48.006251 -122.130653 169 20ft 0kts
29-Jan-17 17:54 48.006250 -122.130653 169 20ft 0kts
29-Jan-17 17:55 48.006250 -122.130653 169 20ft 0kts
29-Jan-17 17:56 48.006250 -122.130653 169 20ft 0kts

Navigation Log

Ident Type
Flight plan parsing failed, navigation log unavailable